Flight Track Log - Related Links

Times and Time Zones

All times are in EDT time to prevent confusion due to time zone crossing. See the BJS339 flight status page for this flight to view local times or setup timezone preferences in your user account.

Time Position Orientation Groundspeed Altitude Reporting Facility
EDT Latitude Longitude Course Direction KTS MPH feet Rate Location/Type
Tue 08:35:17 AM 27.6622 -80.4400 319° Northwest 183 211 1,100  Level Miami Center
Tue 08:36:18 AM 27.7203 -80.4567 346° North 240 276 2,000 1,805 Climbing Miami Center
Tue 08:37:20 AM 27.7833 -80.4653 353° North 256 295 4,800 3,122 Climbing Miami Center
Tue 08:38:21 AM 27.8253 -80.5422 302° West 277 319 8,400 2,607 Climbing Miami Center
Tue 08:39:22 AM 27.8375 -80.6336 279° West 296 341 10,100 2,390 Climbing Miami Center
Tue 08:40:00 AM 28.1659 -80.9492 319° Northwest  Level FlightAware Approximate
Tue 08:40:24 AM 27.8289 -80.7331 264° West 307 353 13,300  Level Miami Center
Tue 08:41:25 AM 27.8192 -80.8369 264° West 341 392 16,200 2,878 Climbing Miami Center
Tue 08:42:27 AM 27.8453 -80.9461 285° West 367 422 19,200 2,468 Climbing Miami Center
Tue 08:43:29 AM 27.9386 -80.9986 334° Northwest 373 429 21,300 2,000 Climbing Miami Center
Tue 08:44:30 AM 28.0367 -81.0531 334° Northwest 391 450 23,300 1,924 Climbing Miami Center
Tue 08:46:33 AM 28.2725 -81.1019 350° North 413 475 27,200 1,728 Climbing Miami Center
Tue 08:47:34 AM 28.3775 -81.1219 350° North 420 483 28,600 1,415 Climbing Miami Center
Tue 08:48:36 AM 28.4950 -81.1447 350° North 426 490 30,100 1,512 Climbing Miami Center
Tue 08:49:37 AM 28.6381 -81.1719 351° North 432 497 31,700 1,268 Climbing Miami Center
Tue 08:50:39 AM 28.7517 -81.1958 350° North 439 505 32,700 1,024 Climbing Miami Center
Tue 08:51:40 AM 28.8750 -81.2192 351° North 444 511 33,800 1,158 Climbing Miami Center
Tue 08:52:33 AM 28.9950 -81.2450 349° North 439 505 34,900 1,221 Climbing Jacksonville Center
Tue 08:53:33 AM 29.1144 -81.2811 345° North 444 511 36,100 1,100 Climbing Jacksonville Center
Tue 08:54:33 AM 29.2297 -81.3269 341° North 444 511 37,100 900 Climbing Jacksonville Center
Tue 08:55:33 AM 29.3453 -81.3725 341° North 439 505 37,900 750 Climbing Jacksonville Center
Tue 08:56:33 AM 29.4625 -81.4186 341° North 439 505 38,600 550 Climbing Jacksonville Center
Tue 08:57:33 AM 29.5778 -81.4550 345° North 434 499 39,000 200 Climbing Jacksonville Center
Tue 08:58:33 AM 29.7050 -81.4458 North 434 499 39,000  Level Jacksonville Center
Tue 08:59:33 AM 29.8256 -81.3961 20° North 442 509 39,000  Level Jacksonville Center
Tue 09:00:33 AM 29.9481 -81.3442 20° North 453 521 39,000  Level Jacksonville Center
Tue 09:01:33 AM 30.0728 -81.2892 21° North 461 531 39,000  Level Jacksonville Center
Tue 09:02:33 AM 30.1994 -81.2511 15° North 466 536 39,000  Level Jacksonville Center
Tue 09:03:33 AM 30.3308 -81.2247 10° North 466 536 39,000  Level Jacksonville Center
Tue 09:04:33 AM 30.4619 -81.1936 12° North 471 542 39,000  Level Jacksonville Center
Tue 09:05:33 AM 30.5931 -81.1622 12° North 471 542 39,000  Level Jacksonville Center
Tue 09:06:33 AM 30.7200 -81.1308 12° North 471 542 39,000  Level Jacksonville Center
Tue 09:07:33 AM 30.8467 -81.0947 14° North 471 542 39,000  Level Jacksonville Center
Tue 09:08:33 AM 30.9669 -81.0367 22° Northeast 466 536 39,000  Level Jacksonville Center
Tue 09:09:33 AM 31.0750 -80.9861 22° Northeast 461 531 39,000  Level Jacksonville Center
Tue 09:10:33 AM 31.2094 -80.9153 24° Northeast 471 542 39,000  Level Jacksonville Center
Tue 09:11:33 AM 31.3297 -80.8569 23° Northeast 471 542 39,000  Level Jacksonville Center
Tue 09:12:33 AM 31.4394 -80.8008 24° Northeast 471 542 39,000  Level Jacksonville Center
Tue 09:13:33 AM 31.5533 -80.7397 25° Northeast 459 528 39,000  Level Jacksonville Center
Tue 09:14:33 AM 31.6878 -80.6733 23° Northeast 459 528 39,000  Level Jacksonville Center
Tue 09:15:33 AM 31.7953 -80.6144 25° Northeast 467 537 39,000  Level Jacksonville Center
Tue 09:16:33 AM 31.9278 -80.5475 23° Northeast 467 537 39,000  Level Jacksonville Center
Tue 09:17:33 AM 32.0353 -80.4908 24° Northeast 473 544 39,000  Level Jacksonville Center
Tue 09:18:33 AM 32.1572 -80.4289 23° Northeast 473 544 39,000  Level Jacksonville Center
Tue 09:19:33 AM 32.2792 -80.3642 24° Northeast 473 544 39,000  Level Jacksonville Center
Tue 09:20:33 AM 32.3989 -80.3017 24° Northeast 473 544 39,000  Level Jacksonville Center
Tue 09:21:33 AM 32.5186 -80.2392 24° Northeast 473 544 39,000  Level Jacksonville Center
Tue 09:22:33 AM 32.6383 -80.1739 25° Northeast 473 544 39,000  Level Jacksonville Center
Tue 09:23:33 AM 32.7581 -80.1086 25° Northeast 473 544 39,000  Level Jacksonville Center
Tue 09:24:33 AM 32.8775 -80.0431 25° Northeast 473 544 39,000  Level Jacksonville Center
Tue 09:25:33 AM 32.9992 -79.9750 25° Northeast 473 544 39,000  Level Jacksonville Center
Tue 09:26:33 AM 33.1208 -79.9114 24° Northeast 473 544 39,000  Level Jacksonville Center
Tue 09:27:33 AM 33.2403 -79.8453 25° Northeast 473 544 39,000  Level Jacksonville Center
Tue 09:28:33 AM 33.3597 -79.7792 25° Northeast 473 544 39,000  Level Jacksonville Center
Tue 09:29:33 AM 33.4792 -79.7125 25° Northeast 473 544 39,000  Level Jacksonville Center
Tue 09:30:33 AM 33.5986 -79.6461 25° Northeast 468 539 39,000  Level Jacksonville Center
Tue 09:31:33 AM 33.7197 -79.5767 25° Northeast 473 544 39,000 100 Level Jacksonville Center
Tue 09:32:33 AM 33.8392 -79.5097 25° Northeast 473 544 39,200 500 Climbing Jacksonville Center
Tue 09:33:33 AM 33.9561 -79.4400 26° Northeast 473 544 40,000 635 Climbing Jacksonville Center
Tue 09:35:23 AM 34.1575 -79.3236 26° Northeast 445 512 41,000 357 Climbing Washington Center
Tue 09:36:21 AM 34.2742 -79.2586 25° Northeast 450 518 41,000  Level Washington Center
Tue 09:37:22 AM 34.3953 -79.1908 25° Northeast 461 531 41,000  Level Washington Center
Tue 09:38:22 AM 34.5142 -79.1206 26° Northeast 466 536 41,000  Level Washington Center
Tue 09:39:23 AM 34.6350 -79.0525 25° Northeast 466 536 41,000  Level Washington Center
Tue 09:40:21 AM 34.7558 -78.9869 24° Northeast 471 542 41,000  Level Washington Center
Tue 09:41:22 AM 34.8786 -78.9214 24° Northeast 471 542 41,000  Level Washington Center
Tue 09:42:23 AM 35.0014 -78.8578 23° Northeast 471 542 41,000  Level Washington Center
Tue 09:43:21 AM 35.1222 -78.7917 24° Northeast 471 542 41,000  Level Washington Center
Tue 09:44:22 AM 35.2450 -78.7253 24° Northeast 471 542 41,000  Level Washington Center
Tue 09:45:23 AM 35.3697 -78.6589 23° Northeast 471 542 41,000  Level Washington Center
Tue 09:46:23 AM 35.5031 -78.5847 24° Northeast 471 542 41,000  Level Washington Center
Tue 09:47:21 AM 35.6364 -78.5158 23° Northeast 478 550 41,000  Level Washington Center
Tue 09:48:22 AM 35.7569 -78.4486 24° Northeast 489 563 41,000  Level Washington Center
Tue 09:49:23 AM 35.8775 -78.3811 24° Northeast 484 557 41,000  Level Washington Center
Tue 09:50:21 AM 36.0000 -78.3136 24° Northeast 484 557 41,000  Level Washington Center
Tue 09:51:21 AM 36.1247 -78.2433 24° Northeast 484 557 41,000  Level Washington Center
Tue 09:52:22 AM 36.2450 -78.1753 25° Northeast 479 551 41,000  Level Washington Center
Tue 09:53:22 AM 36.3675 -78.1094 23° Northeast 479 551 41,000  Level Washington Center
Tue 09:54:20 AM 36.4836 -78.0411 25° Northeast 472 543 41,000  Level Washington Center
Tue 09:55:22 AM 36.6081 -77.9697 25° Northeast 473 544 41,000  Level Washington Center
Tue 09:56:22 AM 36.7283 -77.9008 25° Northeast 473 544 41,000  Level Washington Center
Tue 09:57:21 AM 36.8508 -77.8319 24° Northeast 473 544 41,000  Level Washington Center
Tue 09:58:22 AM 36.9750 -77.7628 24° Northeast 473 544 41,000  Level Washington Center
Tue 09:59:22 AM 37.0953 -77.6931 25° Northeast 473 544 41,000  Level Washington Center
Tue 10:00:22 AM 37.2175 -77.6236 24° Northeast 473 544 41,000  Level Washington Center
Tue 10:01:23 AM 37.3417 -77.5536 24° Northeast 473 544 41,000  Level Washington Center
Tue 10:02:21 AM 37.4658 -77.4808 25° Northeast 473 544 41,000  Level Washington Center
Tue 10:03:21 AM 37.5900 -77.4106 24° Northeast 478 550 41,000  Level Washington Center
Tue 10:04:22 AM 37.7122 -77.3375 25° Northeast 478 550 41,000  Level Washington Center
Tue 10:05:23 AM 37.8300 -77.2586 28° Northeast 478 550 41,000  Level Washington Center
Tue 10:06:21 AM 37.9458 -77.1744 30° Northeast 478 550 41,000  Level Washington Center
Tue 10:07:22 AM 38.0639 -77.0897 29° Northeast 478 550 41,000 -148 Level Washington Center
Tue 10:08:23 AM 38.1836 -77.0103 28° Northeast 478 550 40,700 -1,388 Descending Washington Center
Tue 10:09:23 AM 38.2933 -76.9064 37° Northeast 478 550 38,200 -2,441 Descending Washington Center
Tue 10:10:21 AM 38.3839 -76.8156 38° Northeast 478 550 35,900 -2,924 Descending Washington Center
Tue 10:11:22 AM 38.4978 -76.6900 41° Northeast 479 551 32,400 -3,098 Descending Washington Center
Tue 10:12:23 AM 38.6008 -76.5825 39° Northeast 479 551 29,600 -2,826 Descending Washington Center
Tue 10:13:23 AM 38.7058 -76.4747 39° Northeast 479 551 26,700 -1,800 Descending Washington Center
Tue 10:14:23 AM 38.8211 -76.4017 26° Northeast 461 531 26,000 -356 Descending Washington Center
Tue 10:15:21 AM 38.9403 -76.3417 21° North 456 525 26,000 -356 Level Washington Center
Tue 10:16:21 AM 39.0636 -76.2786 22° Northeast 461 531 25,300 -992 Descending Washington Center
Tue 10:17:22 AM 39.1722 -76.2019 29° Northeast 456 525 24,000 -645 Descending Washington Center
Tue 10:18:22 AM 39.2625 -76.1036 40° Northeast 449 517 24,000 -987 Level Washington Center
Tue 10:19:54 AM 39.4333 -75.9500 35° Northeast 452 520 21,500 -1,855 Descending Philadelphia TRACON
Tue 10:20:54 AM 39.5333 -75.8500 38° Northeast 414 476 19,300 -2,250 Descending Philadelphia TRACON
Tue 10:21:54 AM 39.6167 -75.7667 38° Northeast 419 482 17,000 -2,200 Descending Philadelphia TRACON
Tue 10:22:54 AM 39.7000 -75.6833 38° Northeast 388 447 14,900 -2,000 Descending Philadelphia TRACON
Tue 10:23:54 AM 39.8000 -75.6000 33° Northeast 372 428 13,000 -905 Descending Philadelphia TRACON
Tue 10:25:00 AM 39.8833 -75.5167 37° Northeast 374 430 13,000  Level Philadelphia TRACON
Tue 10:25:54 AM 39.9667 -75.4500 32° Northeast 363 418 13,000  Level Philadelphia TRACON
Tue 10:27:00 AM 40.0500 -75.3667 37° Northeast 382 440 13,000  Level Philadelphia TRACON
Tue 10:28:01 AM 40.1333 -75.2833 37° Northeast 373 429 13,000 -606 Level Philadelphia TRACON
Tue 10:28:49 AM 40.2000 -75.2167 37° Northeast 359 413 11,900 -1,556 Descending Philadelphia TRACON
Tue 10:30:43 AM 40.3333 -75.0833 37° Northeast 303 349 8,800 -1,600 Descending New York TRACON
Tue 10:31:49 AM 40.4000 -75.0000 44° Northeast 292 336 7,100 -1,300 Descending New York TRACON
Tue 10:32:43 AM 40.4500 -74.9333 45° Northeast 295 339 6,200 -1,263 Descending New York TRACON
Tue 10:33:43 AM 40.5000 -74.8500 52° Northeast 277 319 4,700 -1,100 Descending New York TRACON
Tue 10:34:43 AM 40.5500 -74.7833 45° Northeast 273 314 4,000 -350 Descending New York TRACON
Tue 10:35:43 AM 40.6167 -74.7167 37° Northeast 275 316 4,000  Level New York TRACON
Tue 10:36:37 AM 40.6667 -74.6500 45° Northeast 276 318 4,000 -158 Level New York TRACON
Tue 10:37:37 AM 40.7333 -74.6000 30° Northeast 278 320 3,700 -526 Descending New York TRACON
Tue 10:38:31 AM 40.7833 -74.5500 37° Northeast 269 310 3,000 -368 Descending New York TRACON
Tue 10:39:31 AM 40.8333 -74.4833 45° Northeast 269 310 3,000 -50 Level New York TRACON
Tue 10:40:31 AM 40.9000 -74.4333 30° Northeast 267 307 2,900 -500 Descending New York TRACON
Tue 10:41:31 AM 40.9500 -74.3833 37° Northeast 232 267 2,000 -429 Descending New York TRACON
Tue 10:42:37 AM 41.0000 -74.3167 45° Northeast 220 253 2,000  Level New York TRACON
Tue 10:43:37 AM 40.9667 -74.2667 131° Southeast 230 265 2,000  Level New York TRACON
Tue 10:44:37 AM 40.9167 -74.3000 207° Southwest 194 223 2,000 -50 Level New York TRACON
Tue 10:45:37 AM 40.8833 -74.3333 217° Southwest 171 197 1,900 -450 Descending New York TRACON
Tue 10:46:37 AM 40.8500 -74.3667 217° Southwest 135 155 1,100 -474 Descending New York TRACON
Tue 10:47:31 AM 40.8167 -74.4000 217° Southwest 134 154 1,000 -111 Descending New York TRACON

Login

Don't have an account? Register now (free) for customized features, flight alerts, and more!